sensor_id;sensor_type;location;lat;lon;timestamp;P1;durP1;ratioP1;P2;durP2;ratioP2
8421;SDS011;4248;48.196;10.924;2024-02-26T00:01:39;3.50;;;2.17;;
8421;SDS011;4248;48.196;10.924;2024-02-26T00:04:05;4.47;;;1.90;;
8421;SDS011;4248;48.196;10.924;2024-02-26T00:06:31;3.07;;;2.00;;
8421;SDS011;4248;48.196;10.924;2024-02-26T00:08:56;5.47;;;2.90;;
8421;SDS011;4248;48.196;10.924;2024-02-26T00:11:22;2.93;;;1.80;;
8421;SDS011;4248;48.196;10.924;2024-02-26T00:13:48;6.03;;;2.87;;
8421;SDS011;4248;48.196;10.924;2024-02-26T00:16:13;5.30;;;2.20;;
8421;SDS011;4248;48.196;10.924;2024-02-26T00:18:39;4.57;;;2.60;;
8421;SDS011;4248;48.196;10.924;2024-02-26T00:21:04;4.13;;;2.17;;
8421;SDS011;4248;48.196;10.924;2024-02-26T00:23:30;4.70;;;2.37;;
8421;SDS011;4248;48.196;10.924;2024-02-26T00:25:56;5.33;;;2.73;;
8421;SDS011;4248;48.196;10.924;2024-02-26T00:28:21;5.30;;;2.33;;
8421;SDS011;4248;48.196;10.924;2024-02-26T00:30:47;4.80;;;2.83;;
8421;SDS011;4248;48.196;10.924;2024-02-26T00:33:14;4.20;;;2.40;;
8421;SDS011;4248;48.196;10.924;2024-02-26T00:35:41;4.53;;;2.50;;
8421;SDS011;4248;48.196;10.924;2024-02-26T00:38:07;6.10;;;2.93;;
8421;SDS011;4248;48.196;10.924;2024-02-26T00:40:32;3.53;;;2.30;;
8421;SDS011;4248;48.196;10.924;2024-02-26T00:42:59;4.00;;;2.70;;
8421;SDS011;4248;48.196;10.924;2024-02-26T00:45:24;4.07;;;2.20;;
8421;SDS011;4248;48.196;10.924;2024-02-26T00:47:50;5.07;;;2.43;;
8421;SDS011;4248;48.196;10.924;2024-02-26T00:50:16;4.00;;;2.43;;
8421;SDS011;4248;48.196;10.924;2024-02-26T00:52:42;3.93;;;2.10;;
8421;SDS011;4248;48.196;10.924;2024-02-26T00:55:07;4.70;;;2.20;;
8421;SDS011;4248;48.196;10.924;2024-02-26T00:57:33;4.00;;;2.40;;
8421;SDS011;4248;48.196;10.924;2024-02-26T00:59:59;4.13;;;2.50;;
8421;SDS011;4248;48.196;10.924;2024-02-26T01:02:25;6.67;;;2.50;;
8421;SDS011;4248;48.196;10.924;2024-02-26T01:04:51;3.47;;;2.00;;
8421;SDS011;4248;48.196;10.924;2024-02-26T01:07:17;4.60;;;2.23;;
8421;SDS011;4248;48.196;10.924;2024-02-26T01:09:42;3.97;;;2.23;;
8421;SDS011;4248;48.196;10.924;2024-02-26T01:12:08;4.40;;;2.30;;
8421;SDS011;4248;48.196;10.924;2024-02-26T01:14:34;6.67;;;1.50;;
8421;SDS011;4248;48.196;10.924;2024-02-26T01:16:59;3.70;;;1.87;;
8421;SDS011;4248;48.196;10.924;2024-02-26T01:19:25;2.20;;;1.70;;
8421;SDS011;4248;48.196;10.924;2024-02-26T01:21:51;2.60;;;1.67;;
8421;SDS011;4248;48.196;10.924;2024-02-26T01:24:16;2.70;;;1.70;;
8421;SDS011;4248;48.196;10.924;2024-02-26T01:26:42;2.80;;;1.73;;
8421;SDS011;4248;48.196;10.924;2024-02-26T01:29:08;3.40;;;1.70;;
8421;SDS011;4248;48.196;10.924;2024-02-26T01:31:33;4.70;;;2.47;;
8421;SDS011;4248;48.196;10.924;2024-02-26T01:33:59;5.13;;;3.10;;
8421;SDS011;4248;48.196;10.924;2024-02-26T01:36:25;3.72;;;2.28;;
8421;SDS011;4248;48.196;10.924;2024-02-26T01:38:50;4.43;;;2.07;;
8421;SDS011;4248;48.196;10.924;2024-02-26T01:41:16;3.40;;;1.83;;
8421;SDS011;4248;48.196;10.924;2024-02-26T01:43:42;3.13;;;1.90;;
8421;SDS011;4248;48.196;10.924;2024-02-26T01:46:09;5.50;;;2.17;;
8421;SDS011;4248;48.196;10.924;2024-02-26T01:48:38;5.17;;;2.83;;
8421;SDS011;4248;48.196;10.924;2024-02-26T01:51:07;2.40;;;1.70;;
8421;SDS011;4248;48.196;10.924;2024-02-26T01:53:34;2.53;;;1.58;;
8421;SDS011;4248;48.196;10.924;2024-02-26T01:56:00;2.73;;;1.80;;
8421;SDS011;4248;48.196;10.924;2024-02-26T01:58:26;3.00;;;1.63;;
8421;SDS011;4248;48.196;10.924;2024-02-26T02:00:52;2.43;;;1.60;;
8421;SDS011;4248;48.196;10.924;2024-02-26T02:03:18;3.80;;;2.03;;
8421;SDS011;4248;48.196;10.924;2024-02-26T02:05:43;2.87;;;1.90;;
8421;SDS011;4248;48.196;10.924;2024-02-26T02:08:12;4.43;;;1.90;;
8421;SDS011;4248;48.196;10.924;2024-02-26T02:10:39;5.50;;;2.10;;
8421;SDS011;4248;48.196;10.924;2024-02-26T02:13:06;3.90;;;1.90;;
8421;SDS011;4248;48.196;10.924;2024-02-26T02:15:32;3.00;;;1.93;;
8421;SDS011;4248;48.196;10.924;2024-02-26T02:17:58;8.80;;;2.20;;
8421;SDS011;4248;48.196;10.924;2024-02-26T02:20:24;4.30;;;2.90;;
8421;SDS011;4248;48.196;10.924;2024-02-26T02:22:57;4.25;;;2.50;;
8421;SDS011;4248;48.196;10.924;2024-02-26T02:25:23;6.90;;;2.40;;
8421;SDS011;4248;48.196;10.924;2024-02-26T02:27:49;3.33;;;2.30;;
8421;SDS011;4248;48.196;10.924;2024-02-26T02:30:15;3.27;;;2.20;;
8421;SDS011;4248;48.196;10.924;2024-02-26T02:32:41;4.43;;;2.78;;
8421;SDS011;4248;48.196;10.924;2024-02-26T02:35:07;4.30;;;2.20;;
8421;SDS011;4248;48.196;10.924;2024-02-26T02:37:33;2.70;;;1.80;;
8421;SDS011;4248;48.196;10.924;2024-02-26T02:39:59;5.57;;;2.47;;
8421;SDS011;4248;48.196;10.924;2024-02-26T02:42:25;4.90;;;2.77;;
8421;SDS011;4248;48.196;10.924;2024-02-26T02:44:51;7.00;;;2.03;;
8421;SDS011;4248;48.196;10.924;2024-02-26T02:47:16;4.70;;;2.47;;
8421;SDS011;4248;48.196;10.924;2024-02-26T02:49:42;3.70;;;2.20;;
8421;SDS011;4248;48.196;10.924;2024-02-26T02:52:07;2.90;;;1.70;;
8421;SDS011;4248;48.196;10.924;2024-02-26T02:54:33;3.00;;;1.70;;
8421;SDS011;4248;48.196;10.924;2024-02-26T02:56:58;1.90;;;1.33;;
8421;SDS011;4248;48.196;10.924;2024-02-26T02:59:25;5.00;;;2.13;;
8421;SDS011;4248;48.196;10.924;2024-02-26T03:01:50;2.60;;;1.67;;
8421;SDS011;4248;48.196;10.924;2024-02-26T03:04:17;3.20;;;1.90;;
8421;SDS011;4248;48.196;10.924;2024-02-26T03:06:42;3.07;;;1.63;;
8421;SDS011;4248;48.196;10.924;2024-02-26T03:09:08;2.60;;;1.47;;
8421;SDS011;4248;48.196;10.924;2024-02-26T03:11:33;2.93;;;1.70;;
8421;SDS011;4248;48.196;10.924;2024-02-26T03:13:59;4.50;;;1.80;;
8421;SDS011;4248;48.196;10.924;2024-02-26T03:16:24;3.17;;;1.60;;
8421;SDS011;4248;48.196;10.924;2024-02-26T03:18:50;4.20;;;2.40;;
8421;SDS011;4248;48.196;10.924;2024-02-26T03:21:15;4.63;;;2.00;;
8421;SDS011;4248;48.196;10.924;2024-02-26T03:23:41;3.90;;;1.70;;
8421;SDS011;4248;48.196;10.924;2024-02-26T03:26:07;2.60;;;1.70;;
8421;SDS011;4248;48.196;10.924;2024-02-26T03:28:33;2.70;;;1.50;;
8421;SDS011;4248;48.196;10.924;2024-02-26T03:30:59;2.00;;;1.33;;
8421;SDS011;4248;48.196;10.924;2024-02-26T03:33:26;7.17;;;1.77;;
8421;SDS011;4248;48.196;10.924;2024-02-26T03:35:51;2.73;;;1.60;;
8421;SDS011;4248;48.196;10.924;2024-02-26T03:38:17;2.57;;;1.77;;
8421;SDS011;4248;48.196;10.924;2024-02-26T03:40:42;4.67;;;2.47;;
8421;SDS011;4248;48.196;10.924;2024-02-26T03:43:08;4.77;;;2.00;;
8421;SDS011;4248;48.196;10.924;2024-02-26T03:45:33;4.43;;;2.40;;
8421;SDS011;4248;48.196;10.924;2024-02-26T03:47:59;4.10;;;2.67;;
8421;SDS011;4248;48.196;10.924;2024-02-26T03:50:25;4.20;;;2.50;;
8421;SDS011;4248;48.196;10.924;2024-02-26T03:52:50;5.33;;;2.53;;
8421;SDS011;4248;48.196;10.924;2024-02-26T03:55:16;4.67;;;2.23;;
8421;SDS011;4248;48.196;10.924;2024-02-26T03:57:49;3.20;;;2.00;;
8421;SDS011;4248;48.196;10.924;2024-02-26T04:00:15;3.63;;;2.17;;
8421;SDS011;4248;48.196;10.924;2024-02-26T04:02:41;3.20;;;2.20;;
8421;SDS011;4248;48.196;10.924;2024-02-26T04:05:10;4.67;;;2.20;;
8421;SDS011;4248;48.196;10.924;2024-02-26T04:07:36;3.63;;;2.27;;
8421;SDS011;4248;48.196;10.924;2024-02-26T04:10:02;5.63;;;2.20;;
8421;SDS011;4248;48.196;10.924;2024-02-26T04:12:30;4.27;;;2.40;;
8421;SDS011;4248;48.196;10.924;2024-02-26T04:14:56;5.30;;;3.00;;
8421;SDS011;4248;48.196;10.924;2024-02-26T04:17:21;5.70;;;2.87;;
8421;SDS011;4248;48.196;10.924;2024-02-26T04:19:47;5.63;;;3.20;;
8421;SDS011;4248;48.196;10.924;2024-02-26T04:22:12;5.07;;;3.03;;
8421;SDS011;4248;48.196;10.924;2024-02-26T04:24:38;4.93;;;3.20;;
8421;SDS011;4248;48.196;10.924;2024-02-26T04:27:04;4.33;;;2.80;;
8421;SDS011;4248;48.196;10.924;2024-02-26T04:29:29;4.57;;;2.43;;
8421;SDS011;4248;48.196;10.924;2024-02-26T04:31:55;3.73;;;2.63;;
8421;SDS011;4248;48.196;10.924;2024-02-26T04:34:20;4.10;;;2.30;;
8421;SDS011;4248;48.196;10.924;2024-02-26T04:36:46;28.33;;;9.10;;
8421;SDS011;4248;48.196;10.924;2024-02-26T04:39:13;34.85;;;14.90;;
8421;SDS011;4248;48.196;10.924;2024-02-26T04:41:38;27.57;;;14.50;;
8421;SDS011;4248;48.196;10.924;2024-02-26T04:44:04;6.60;;;4.00;;
8421;SDS011;4248;48.196;10.924;2024-02-26T04:46:30;7.67;;;4.20;;
8421;SDS011;4248;48.196;10.924;2024-02-26T04:48:56;6.97;;;4.23;;
8421;SDS011;4248;48.196;10.924;2024-02-26T04:51:21;7.50;;;3.63;;
8421;SDS011;4248;48.196;10.924;2024-02-26T04:53:47;6.30;;;3.60;;
8421;SDS011;4248;48.196;10.924;2024-02-26T04:56:12;5.10;;;3.30;;
8421;SDS011;4248;48.196;10.924;2024-02-26T04:58:38;8.13;;;4.67;;
8421;SDS011;4248;48.196;10.924;2024-02-26T05:01:04;7.20;;;4.30;;
8421;SDS011;4248;48.196;10.924;2024-02-26T05:03:30;5.33;;;3.27;;
8421;SDS011;4248;48.196;10.924;2024-02-26T05:05:56;4.53;;;2.70;;
8421;SDS011;4248;48.196;10.924;2024-02-26T05:08:23;3.88;;;2.70;;
8421;SDS011;4248;48.196;10.924;2024-02-26T05:10:48;7.20;;;3.77;;
8421;SDS011;4248;48.196;10.924;2024-02-26T05:13:14;5.83;;;3.50;;
8421;SDS011;4248;48.196;10.924;2024-02-26T05:15:41;7.40;;;4.40;;
8421;SDS011;4248;48.196;10.924;2024-02-26T05:18:07;8.17;;;4.60;;
8421;SDS011;4248;48.196;10.924;2024-02-26T05:20:33;12.50;;;4.83;;
8421;SDS011;4248;48.196;10.924;2024-02-26T05:23:00;9.10;;;4.60;;
8421;SDS011;4248;48.196;10.924;2024-02-26T05:25:25;8.00;;;5.40;;
8421;SDS011;4248;48.196;10.924;2024-02-26T05:27:51;17.53;;;4.83;;
8421;SDS011;4248;48.196;10.924;2024-02-26T05:30:16;7.43;;;4.77;;
8421;SDS011;4248;48.196;10.924;2024-02-26T05:32:42;8.67;;;5.03;;
8421;SDS011;4248;48.196;10.924;2024-02-26T05:35:08;11.00;;;6.30;;
8421;SDS011;4248;48.196;10.924;2024-02-26T05:37:33;14.83;;;8.90;;
8421;SDS011;4248;48.196;10.924;2024-02-26T05:39:59;15.00;;;10.10;;
8421;SDS011;4248;48.196;10.924;2024-02-26T05:42:25;11.30;;;7.20;;
8421;SDS011;4248;48.196;10.924;2024-02-26T05:44:50;9.63;;;6.47;;
8421;SDS011;4248;48.196;10.924;2024-02-26T05:47:16;10.53;;;6.97;;
8421;SDS011;4248;48.196;10.924;2024-02-26T05:49:42;11.93;;;7.00;;
8421;SDS011;4248;48.196;10.924;2024-02-26T05:52:08;9.67;;;6.70;;
8421;SDS011;4248;48.196;10.924;2024-02-26T05:54:33;11.10;;;6.40;;
8421;SDS011;4248;48.196;10.924;2024-02-26T05:56:59;11.93;;;6.70;;
8421;SDS011;4248;48.196;10.924;2024-02-26T05:59:24;9.80;;;6.27;;
8421;SDS011;4248;48.196;10.924;2024-02-26T06:01:50;9.93;;;6.63;;
8421;SDS011;4248;48.196;10.924;2024-02-26T06:04:16;9.63;;;6.03;;
8421;SDS011;4248;48.196;10.924;2024-02-26T06:06:44;9.23;;;5.70;;
8421;SDS011;4248;48.196;10.924;2024-02-26T06:09:12;8.10;;;6.00;;
8421;SDS011;4248;48.196;10.924;2024-02-26T06:11:38;12.03;;;6.17;;
8421;SDS011;4248;48.196;10.924;2024-02-26T06:14:04;7.93;;;5.73;;
8421;SDS011;4248;48.196;10.924;2024-02-26T06:16:30;10.83;;;5.80;;
8421;SDS011;4248;48.196;10.924;2024-02-26T06:18:55;9.33;;;5.97;;
8421;SDS011;4248;48.196;10.924;2024-02-26T06:21:21;8.30;;;5.93;;
8421;SDS011;4248;48.196;10.924;2024-02-26T06:23:47;8.63;;;5.90;;
8421;SDS011;4248;48.196;10.924;2024-02-26T06:26:13;10.47;;;6.30;;
8421;SDS011;4248;48.196;10.924;2024-02-26T06:28:38;8.03;;;5.50;;
8421;SDS011;4248;48.196;10.924;2024-02-26T06:31:05;13.57;;;7.90;;
8421;SDS011;4248;48.196;10.924;2024-02-26T06:33:31;35.07;;;16.93;;
8421;SDS011;4248;48.196;10.924;2024-02-26T06:35:57;19.70;;;12.53;;
8421;SDS011;4248;48.196;10.924;2024-02-26T06:38:22;18.60;;;11.27;;
8421;SDS011;4248;48.196;10.924;2024-02-26T06:40:48;14.37;;;7.00;;
8421;SDS011;4248;48.196;10.924;2024-02-26T06:43:13;10.57;;;6.43;;
8421;SDS011;4248;48.196;10.924;2024-02-26T06:45:39;11.57;;;6.63;;
8421;SDS011;4248;48.196;10.924;2024-02-26T06:48:05;9.70;;;6.20;;
8421;SDS011;4248;48.196;10.924;2024-02-26T06:50:31;12.50;;;6.90;;
8421;SDS011;4248;48.196;10.924;2024-02-26T06:52:56;12.63;;;7.73;;
8421;SDS011;4248;48.196;10.924;2024-02-26T06:55:22;13.53;;;6.60;;
8421;SDS011;4248;48.196;10.924;2024-02-26T06:57:47;10.53;;;6.77;;
8421;SDS011;4248;48.196;10.924;2024-02-26T07:00:13;12.07;;;6.80;;
8421;SDS011;4248;48.196;10.924;2024-02-26T07:02:41;8.73;;;5.57;;
8421;SDS011;4248;48.196;10.924;2024-02-26T07:05:07;12.47;;;7.40;;
8421;SDS011;4248;48.196;10.924;2024-02-26T07:07:33;11.00;;;6.50;;
8421;SDS011;4248;48.196;10.924;2024-02-26T07:09:59;12.97;;;6.70;;
8421;SDS011;4248;48.196;10.924;2024-02-26T07:12:25;10.43;;;5.67;;
8421;SDS011;4248;48.196;10.924;2024-02-26T07:14:50;8.30;;;5.60;;
8421;SDS011;4248;48.196;10.924;2024-02-26T07:17:17;10.67;;;5.70;;
8421;SDS011;4248;48.196;10.924;2024-02-26T07:19:43;9.50;;;6.00;;
8421;SDS011;4248;48.196;10.924;2024-02-26T07:22:08;10.20;;;6.27;;
8421;SDS011;4248;48.196;10.924;2024-02-26T07:24:34;8.93;;;5.93;;
8421;SDS011;4248;48.196;10.924;2024-02-26T07:26:59;11.23;;;7.00;;
8421;SDS011;4248;48.196;10.924;2024-02-26T07:29:25;9.70;;;6.30;;
8421;SDS011;4248;48.196;10.924;2024-02-26T07:31:50;10.73;;;7.43;;
8421;SDS011;4248;48.196;10.924;2024-02-26T07:34:16;10.30;;;6.37;;
8421;SDS011;4248;48.196;10.924;2024-02-26T07:36:42;9.17;;;6.17;;
8421;SDS011;4248;48.196;10.924;2024-02-26T07:39:07;11.50;;;6.13;;
8421;SDS011;4248;48.196;10.924;2024-02-26T07:41:33;9.80;;;6.07;;
8421;SDS011;4248;48.196;10.924;2024-02-26T07:43:58;8.80;;;5.13;;
8421;SDS011;4248;48.196;10.924;2024-02-26T07:46:24;12.57;;;6.07;;
8421;SDS011;4248;48.196;10.924;2024-02-26T07:48:49;9.23;;;5.17;;
8421;SDS011;4248;48.196;10.924;2024-02-26T07:51:15;11.00;;;5.40;;
8421;SDS011;4248;48.196;10.924;2024-02-26T07:53:42;9.53;;;5.47;;
8421;SDS011;4248;48.196;10.924;2024-02-26T07:56:08;11.30;;;4.77;;
8421;SDS011;4248;48.196;10.924;2024-02-26T07:58:34;8.20;;;5.33;;
8421;SDS011;4248;48.196;10.924;2024-02-26T08:00:59;12.40;;;6.00;;
8421;SDS011;4248;48.196;10.924;2024-02-26T08:03:25;6.70;;;4.90;;
8421;SDS011;4248;48.196;10.924;2024-02-26T08:05:51;7.97;;;4.70;;
8421;SDS011;4248;48.196;10.924;2024-02-26T08:08:17;7.50;;;4.47;;
8421;SDS011;4248;48.196;10.924;2024-02-26T08:10:42;11.70;;;4.27;;
8421;SDS011;4248;48.196;10.924;2024-02-26T08:13:08;7.50;;;5.20;;
8421;SDS011;4248;48.196;10.924;2024-02-26T08:15:37;9.07;;;5.03;;
8421;SDS011;4248;48.196;10.924;2024-02-26T08:18:03;11.67;;;5.97;;
8421;SDS011;4248;48.196;10.924;2024-02-26T08:20:29;9.87;;;5.40;;
8421;SDS011;4248;48.196;10.924;2024-02-26T08:22:56;18.70;;;6.30;;
8421;SDS011;4248;48.196;10.924;2024-02-26T08:25:22;7.07;;;4.63;;
8421;SDS011;4248;48.196;10.924;2024-02-26T08:27:48;8.43;;;5.27;;
8421;SDS011;4248;48.196;10.924;2024-02-26T08:30:14;7.40;;;4.17;;
8421;SDS011;4248;48.196;10.924;2024-02-26T08:32:42;5.90;;;4.10;;
8421;SDS011;4248;48.196;10.924;2024-02-26T08:35:11;6.03;;;3.67;;
8421;SDS011;4248;48.196;10.924;2024-02-26T08:37:36;6.30;;;4.13;;
8421;SDS011;4248;48.196;10.924;2024-02-26T08:40:02;6.40;;;3.93;;
8421;SDS011;4248;48.196;10.924;2024-02-26T08:42:29;6.37;;;4.00;;
8421;SDS011;4248;48.196;10.924;2024-02-26T08:44:54;6.47;;;4.23;;
8421;SDS011;4248;48.196;10.924;2024-02-26T08:47:20;8.57;;;5.00;;
8421;SDS011;4248;48.196;10.924;2024-02-26T08:49:45;7.03;;;4.10;;
8421;SDS011;4248;48.196;10.924;2024-02-26T08:52:11;8.77;;;4.80;;
8421;SDS011;4248;48.196;10.924;2024-02-26T08:54:37;11.00;;;4.73;;
8421;SDS011;4248;48.196;10.924;2024-02-26T08:57:03;7.67;;;4.03;;
8421;SDS011;4248;48.196;10.924;2024-02-26T08:59:29;6.80;;;4.30;;
8421;SDS011;4248;48.196;10.924;2024-02-26T09:01:54;8.87;;;3.33;;
8421;SDS011;4248;48.196;10.924;2024-02-26T09:04:20;5.60;;;3.90;;
8421;SDS011;4248;48.196;10.924;2024-02-26T09:06:46;7.50;;;3.60;;
8421;SDS011;4248;48.196;10.924;2024-02-26T09:09:12;7.40;;;4.20;;
8421;SDS011;4248;48.196;10.924;2024-02-26T09:11:37;6.97;;;4.20;;
8421;SDS011;4248;48.196;10.924;2024-02-26T09:14:03;5.70;;;3.60;;
8421;SDS011;4248;48.196;10.924;2024-02-26T09:16:29;8.70;;;4.30;;
8421;SDS011;4248;48.196;10.924;2024-02-26T09:18:56;7.93;;;4.33;;
8421;SDS011;4248;48.196;10.924;2024-02-26T09:21:22;9.93;;;5.40;;
8421;SDS011;4248;48.196;10.924;2024-02-26T09:23:49;7.27;;;4.40;;
8421;SDS011;4248;48.196;10.924;2024-02-26T09:26:15;8.60;;;4.67;;
8421;SDS011;4248;48.196;10.924;2024-02-26T09:28:41;11.33;;;5.97;;
8421;SDS011;4248;48.196;10.924;2024-02-26T09:31:07;7.70;;;4.10;;
8421;SDS011;4248;48.196;10.924;2024-02-26T09:33:32;5.50;;;3.50;;
8421;SDS011;4248;48.196;10.924;2024-02-26T09:35:58;16.30;;;5.47;;
8421;SDS011;4248;48.196;10.924;2024-02-26T09:38:25;8.47;;;4.93;;
8421;SDS011;4248;48.196;10.924;2024-02-26T09:40:51;10.50;;;4.60;;
8421;SDS011;4248;48.196;10.924;2024-02-26T09:43:17;8.60;;;4.53;;
8421;SDS011;4248;48.196;10.924;2024-02-26T09:45:47;6.40;;;4.40;;
8421;SDS011;4248;48.196;10.924;2024-02-26T09:48:14;9.40;;;4.23;;
8421;SDS011;4248;48.196;10.924;2024-02-26T09:50:42;12.63;;;4.50;;
8421;SDS011;4248;48.196;10.924;2024-02-26T09:53:09;7.33;;;4.90;;
8421;SDS011;4248;48.196;10.924;2024-02-26T09:55:37;11.43;;;4.97;;
8421;SDS011;4248;48.196;10.924;2024-02-26T09:58:03;7.90;;;3.50;;
8421;SDS011;4248;48.196;10.924;2024-02-26T10:00:30;7.07;;;3.70;;
8421;SDS011;4248;48.196;10.924;2024-02-26T10:03:01;15.50;;;5.03;;
8421;SDS011;4248;48.196;10.924;2024-02-26T10:05:34;6.10;;;4.17;;
8421;SDS011;4248;48.196;10.924;2024-02-26T10:08:02;9.67;;;4.23;;
8421;SDS011;4248;48.196;10.924;2024-02-26T10:10:29;7.50;;;4.50;;
8421;SDS011;4248;48.196;10.924;2024-02-26T10:12:58;8.63;;;3.90;;
8421;SDS011;4248;48.196;10.924;2024-02-26T10:15:24;6.27;;;3.87;;
8421;SDS011;4248;48.196;10.924;2024-02-26T10:17:50;6.60;;;3.80;;
8421;SDS011;4248;48.196;10.924;2024-02-26T10:20:17;7.13;;;4.13;;
8421;SDS011;4248;48.196;10.924;2024-02-26T10:22:43;14.90;;;5.80;;
8421;SDS011;4248;48.196;10.924;2024-02-26T10:25:09;9.23;;;4.70;;
8421;SDS011;4248;48.196;10.924;2024-02-26T10:27:35;7.67;;;4.63;;
8421;SDS011;4248;48.196;10.924;2024-02-26T10:30:04;7.20;;;4.30;;
8421;SDS011;4248;48.196;10.924;2024-02-26T10:32:51;8.17;;;4.17;;
8421;SDS011;4248;48.196;10.924;2024-02-26T10:35:17;9.27;;;5.50;;
8421;SDS011;4248;48.196;10.924;2024-02-26T10:37:43;7.97;;;5.13;;
8421;SDS011;4248;48.196;10.924;2024-02-26T10:40:13;9.67;;;4.47;;
8421;SDS011;4248;48.196;10.924;2024-02-26T10:42:39;7.37;;;4.00;;
8421;SDS011;4248;48.196;10.924;2024-02-26T10:45:09;9.63;;;5.13;;
8421;SDS011;4248;48.196;10.924;2024-02-26T10:47:35;15.30;;;6.07;;
8421;SDS011;4248;48.196;10.924;2024-02-26T10:50:02;6.30;;;4.10;;
8421;SDS011;4248;48.196;10.924;2024-02-26T10:52:30;10.63;;;4.63;;
8421;SDS011;4248;48.196;10.924;2024-02-26T10:55:04;6.73;;;4.20;;
8421;SDS011;4248;48.196;10.924;2024-02-26T10:57:36;8.67;;;4.73;;
8421;SDS011;4248;48.196;10.924;2024-02-26T11:00:05;8.13;;;5.30;;
8421;SDS011;4248;48.196;10.924;2024-02-26T11:02:34;11.93;;;6.30;;
8421;SDS011;4248;48.196;10.924;2024-02-26T11:05:04;8.43;;;4.93;;
8421;SDS011;4248;48.196;10.924;2024-02-26T11:07:31;10.40;;;5.70;;
8421;SDS011;4248;48.196;10.924;2024-02-26T11:09:59;9.03;;;5.37;;
8421;SDS011;4248;48.196;10.924;2024-02-26T11:12:27;10.23;;;5.67;;
8421;SDS011;4248;48.196;10.924;2024-02-26T11:14:53;8.13;;;5.57;;
8421;SDS011;4248;48.196;10.924;2024-02-26T11:17:21;7.73;;;5.17;;
8421;SDS011;4248;48.196;10.924;2024-02-26T11:19:49;10.10;;;5.90;;
8421;SDS011;4248;48.196;10.924;2024-02-26T11:22:16;12.43;;;6.30;;
8421;SDS011;4248;48.196;10.924;2024-02-26T11:24:42;11.60;;;5.80;;
8421;SDS011;4248;48.196;10.924;2024-02-26T11:27:09;9.53;;;5.70;;
8421;SDS011;4248;48.196;10.924;2024-02-26T11:29:41;7.30;;;4.73;;
8421;SDS011;4248;48.196;10.924;2024-02-26T11:32:12;6.13;;;4.30;;
8421;SDS011;4248;48.196;10.924;2024-02-26T11:34:39;6.93;;;4.30;;
8421;SDS011;4248;48.196;10.924;2024-02-26T11:37:08;8.73;;;4.77;;
8421;SDS011;4248;48.196;10.924;2024-02-26T11:39:42;7.67;;;4.97;;
8421;SDS011;4248;48.196;10.924;2024-02-26T11:42:10;7.67;;;4.53;;
8421;SDS011;4248;48.196;10.924;2024-02-26T11:44:41;8.73;;;5.67;;
8421;SDS011;4248;48.196;10.924;2024-02-26T11:47:11;8.67;;;5.40;;
8421;SDS011;4248;48.196;10.924;2024-02-26T11:49:37;10.33;;;5.30;;
8421;SDS011;4248;48.196;10.924;2024-02-26T11:52:05;10.87;;;5.33;;
8421;SDS011;4248;48.196;10.924;2024-02-26T11:57:27;9.73;;;5.23;;
8421;SDS011;4248;48.196;10.924;2024-02-26T12:00:14;10.00;;;4.83;;
8421;SDS011;4248;48.196;10.924;2024-02-26T12:05:11;7.43;;;4.77;;
8421;SDS011;4248;48.196;10.924;2024-02-26T12:07:45;8.43;;;4.30;;
8421;SDS011;4248;48.196;10.924;2024-02-26T12:10:30;7.70;;;4.10;;
8421;SDS011;4248;48.196;10.924;2024-02-26T12:13:07;12.03;;;3.80;;
8421;SDS011;4248;48.196;10.924;2024-02-26T12:15:38;5.93;;;3.30;;
8421;SDS011;4248;48.196;10.924;2024-02-26T12:18:23;7.00;;;3.70;;
8421;SDS011;4248;48.196;10.924;2024-02-26T12:20:59;5.87;;;3.90;;
8421;SDS011;4248;48.196;10.924;2024-02-26T12:23:29;6.20;;;3.53;;
8421;SDS011;4248;48.196;10.924;2024-02-26T12:26:01;6.10;;;3.93;;
8421;SDS011;4248;48.196;10.924;2024-02-26T12:28:27;11.43;;;3.43;;
8421;SDS011;4248;48.196;10.924;2024-02-26T12:30:56;5.20;;;3.20;;
8421;SDS011;4248;48.196;10.924;2024-02-26T12:33:24;4.63;;;3.13;;
8421;SDS011;4248;48.196;10.924;2024-02-26T12:35:51;4.80;;;3.17;;
8421;SDS011;4248;48.196;10.924;2024-02-26T12:38:17;6.63;;;3.67;;
8421;SDS011;4248;48.196;10.924;2024-02-26T12:40:44;4.27;;;2.67;;
8421;SDS011;4248;48.196;10.924;2024-02-26T12:43:10;6.30;;;3.13;;
8421;SDS011;4248;48.196;10.924;2024-02-26T12:45:40;5.47;;;3.53;;
8421;SDS011;4248;48.196;10.924;2024-02-26T12:48:06;7.27;;;3.70;;
8421;SDS011;4248;48.196;10.924;2024-02-26T12:50:32;5.30;;;3.40;;
8421;SDS011;4248;48.196;10.924;2024-02-26T12:52:58;6.83;;;3.70;;
8421;SDS011;4248;48.196;10.924;2024-02-26T12:55:24;6.97;;;3.47;;
8421;SDS011;4248;48.196;10.924;2024-02-26T12:57:51;11.87;;;3.20;;
8421;SDS011;4248;48.196;10.924;2024-02-26T13:00:22;10.50;;;3.70;;
8421;SDS011;4248;48.196;10.924;2024-02-26T13:02:50;5.50;;;3.13;;
8421;SDS011;4248;48.196;10.924;2024-02-26T13:05:16;4.93;;;2.80;;
8421;SDS011;4248;48.196;10.924;2024-02-26T13:07:44;4.67;;;2.50;;
8421;SDS011;4248;48.196;10.924;2024-02-26T13:10:12;4.33;;;2.07;;
8421;SDS011;4248;48.196;10.924;2024-02-26T13:12:45;8.10;;;3.70;;
8421;SDS011;4248;48.196;10.924;2024-02-26T13:15:16;6.80;;;3.40;;
8421;SDS011;4248;48.196;10.924;2024-02-26T13:17:42;5.93;;;3.03;;
8421;SDS011;4248;48.196;10.924;2024-02-26T13:20:11;5.17;;;3.10;;
8421;SDS011;4248;48.196;10.924;2024-02-26T13:22:38;5.57;;;3.07;;
8421;SDS011;4248;48.196;10.924;2024-02-26T13:25:04;5.73;;;3.10;;
8421;SDS011;4248;48.196;10.924;2024-02-26T13:27:32;4.43;;;2.87;;
8421;SDS011;4248;48.196;10.924;2024-02-26T13:30:11;5.00;;;2.50;;
8421;SDS011;4248;48.196;10.924;2024-02-26T13:32:38;10.93;;;3.40;;
8421;SDS011;4248;48.196;10.924;2024-02-26T13:35:05;14.20;;;4.33;;
8421;SDS011;4248;48.196;10.924;2024-02-26T13:37:32;6.00;;;3.23;;
8421;SDS011;4248;48.196;10.924;2024-02-26T13:39:58;4.87;;;2.40;;
8421;SDS011;4248;48.196;10.924;2024-02-26T13:42:24;3.40;;;2.00;;
8421;SDS011;4248;48.196;10.924;2024-02-26T13:44:49;5.00;;;2.70;;
8421;SDS011;4248;48.196;10.924;2024-02-26T13:47:15;4.83;;;2.90;;
8421;SDS011;4248;48.196;10.924;2024-02-26T13:49:41;10.07;;;3.33;;
8421;SDS011;4248;48.196;10.924;2024-02-26T13:52:06;6.43;;;3.83;;
8421;SDS011;4248;48.196;10.924;2024-02-26T13:54:32;6.97;;;3.30;;
8421;SDS011;4248;48.196;10.924;2024-02-26T13:56:58;4.93;;;2.53;;
8421;SDS011;4248;48.196;10.924;2024-02-26T13:59:24;5.90;;;2.63;;
8421;SDS011;4248;48.196;10.924;2024-02-26T14:01:49;5.17;;;2.57;;
8421;SDS011;4248;48.196;10.924;2024-02-26T14:04:15;5.60;;;2.83;;
8421;SDS011;4248;48.196;10.924;2024-02-26T14:06:41;6.33;;;3.00;;
8421;SDS011;4248;48.196;10.924;2024-02-26T14:09:07;5.30;;;2.33;;
8421;SDS011;4248;48.196;10.924;2024-02-26T14:11:33;5.50;;;2.40;;
8421;SDS011;4248;48.196;10.924;2024-02-26T14:13:59;6.80;;;2.93;;
8421;SDS011;4248;48.196;10.924;2024-02-26T14:16:25;7.73;;;3.00;;
8421;SDS011;4248;48.196;10.924;2024-02-26T14:18:50;7.10;;;3.13;;
8421;SDS011;4248;48.196;10.924;2024-02-26T14:21:16;7.70;;;3.23;;
8421;SDS011;4248;48.196;10.924;2024-02-26T14:23:41;9.87;;;4.90;;
8421;SDS011;4248;48.196;10.924;2024-02-26T14:26:09;9.90;;;4.90;;
8421;SDS011;4248;48.196;10.924;2024-02-26T14:28:35;11.80;;;6.00;;
8421;SDS011;4248;48.196;10.924;2024-02-26T14:31:00;11.53;;;5.63;;
8421;SDS011;4248;48.196;10.924;2024-02-26T14:33:26;11.07;;;5.47;;
8421;SDS011;4248;48.196;10.924;2024-02-26T14:35:51;9.87;;;5.03;;
8421;SDS011;4248;48.196;10.924;2024-02-26T14:38:17;9.90;;;4.00;;
8421;SDS011;4248;48.196;10.924;2024-02-26T14:40:42;5.27;;;2.70;;
8421;SDS011;4248;48.196;10.924;2024-02-26T14:43:08;5.63;;;2.13;;
8421;SDS011;4248;48.196;10.924;2024-02-26T14:45:35;10.00;;;2.67;;
8421;SDS011;4248;48.196;10.924;2024-02-26T14:48:00;5.93;;;2.70;;
8421;SDS011;4248;48.196;10.924;2024-02-26T14:50:26;4.37;;;2.47;;
8421;SDS011;4248;48.196;10.924;2024-02-26T14:52:51;7.80;;;3.40;;
8421;SDS011;4248;48.196;10.924;2024-02-26T14:55:17;7.13;;;3.77;;
8421;SDS011;4248;48.196;10.924;2024-02-26T14:57:42;10.23;;;4.93;;
8421;SDS011;4248;48.196;10.924;2024-02-26T15:00:08;18.83;;;8.10;;